Etusivu
METAR-TAF:

METAR-TAF

Lentoasemat :

Molden lentoasema

Molde, Norja

Leveyspiiri: 62-45N, Pituuspiiri: 007-16E, korkeus merenpinnasta: 0 m

Tämänhetkinen sää

Tämä raportti tehtiin 44 minuuttia sitten, kello 23.20 UTC
Tuuli 7 kn koillisesta, vaihdellen pohjoisen/koillisen ja idän välillä
Lämpötila 1°C
Kosteus 75%
Ilmanpaine 1029 hPa
Näkyvyys 10 km tai enemmän

METAR: ENML 202320Z AUTO 05007KT 020V080 9999NDV NCD 01/M03 Q1029

Aika: 01:04 (00:04 UTC)

Sääennuste

Tämä raportti tehtiin 3 tuntia ja 29 minuuttia sitten, kello 20.35 UTC
Ennuste voimassa 20. päivästä klo 20 UTC - 20. päivään klo 22 UTC
Tuuli 8 kn idästä/koillisesta
Näkyvyys 10 km tai enemmän
Muutamia pilviä 1500 ft:n korkeudessa

TAF: ENML 202035Z 2020/2022 07008KT 9999 FEW015

Säähavainnot ja -ennusteet yli 4000 lentoasemalta (METAR- ja TAF-raportit).

Käytössä olevat sääasemat on merkitty karttaan keltaisilla ja punaisilla pisteillä.

Aseta hiiri pisteen päälle nähdäksesi sääaseman nimen.

Klikkaa sitten nähdäksesi säähavainnot ja -ennusteet.

Kartan vaihtaminen: klikkaa mustalla rastilla varustettuja vihreitä pisteitä, niin voit zoomata sisään; viivalla varustettua vihreää pistettä, niin voit zoomata ulos tai vihreitä nuolia, niin pääset viereisille kartoille.


METAR-TAF: